createdAt,value
2023-03-24T00:00:45.070Z,6.00
2023-03-24T00:08:48.401Z,6.01
2023-03-24T00:11:18.810Z,6.06
2023-03-24T00:13:47.335Z,6.00
2023-03-24T00:29:49.493Z,5.79
2023-03-24T00:35:13.682Z,5.79
2023-03-24T00:37:43.391Z,5.78
2023-03-24T00:45:47.021Z,5.82
2023-03-24T00:48:22.005Z,5.83
2023-03-24T00:50:49.912Z,5.82
2023-03-24T00:53:27.828Z,5.82
2023-03-24T00:55:55.686Z,5.85
2023-03-24T00:58:23.272Z,5.87
2023-03-24T01:06:30.886Z,5.92
2023-03-24T01:08:58.108Z,5.96
2023-03-24T01:11:26.606Z,5.95
2023-03-24T01:13:55.528Z,5.97
2023-03-24T01:16:26.788Z,6.02
2023-03-24T01:18:54.165Z,6.03
2023-03-24T01:21:54.651Z,6.10
2023-03-24T01:24:25.612Z,6.08
2023-03-24T01:26:53.518Z,6.14
2023-03-24T01:29:25.514Z,6.20
2023-03-24T01:37:29.280Z,6.29
2023-03-24T01:42:39.509Z,6.30
2023-03-24T01:45:54.530Z,6.38
2023-03-24T01:48:38.582Z,6.34
2023-03-24T01:51:08.656Z,6.20
2023-03-24T01:53:38.915Z,6.20
2023-03-24T01:56:07.294Z,6.17
2023-03-24T01:58:43.537Z,6.16
2023-03-24T02:01:31.649Z,6.14
2023-03-24T02:04:11.490Z,6.19
2023-03-24T02:06:44.148Z,6.22
2023-03-24T02:13:19.542Z,6.20
2023-03-24T02:16:09.713Z,6.26
2023-03-24T02:30:02.850Z,6.24
2023-03-24T02:33:19.886Z,6.19
2023-03-24T02:35:47.678Z,6.13
2023-03-24T03:30:07.809Z,6.25
2023-03-24T03:32:39.390Z,6.41
2023-03-24T03:46:37.413Z,6.43
2023-03-24T03:49:32.590Z,6.27
2023-03-24T03:53:14.706Z,6.43
2023-03-24T03:55:42.920Z,6.25
2023-03-24T04:07:24.446Z,6.25
2023-03-24T04:10:16.125Z,6.25
2023-03-24T04:13:46.042Z,6.15
2023-03-24T04:16:29.160Z,6.14
2023-03-24T04:19:14.136Z,6.10
2023-03-24T04:21:56.357Z,6.05
2023-03-24T04:24:32.904Z,6.03
2023-03-24T04:27:00.931Z,5.95
2023-03-24T04:29:38.259Z,5.84
2023-03-24T04:32:11.495Z,5.74
2023-03-24T04:34:45.796Z,5.62
2023-03-24T04:37:38.266Z,5.66
2023-03-24T04:43:18.093Z,5.52
2023-03-24T04:45:51.829Z,5.46
2023-03-24T04:48:40.257Z,5.39
2023-03-24T04:51:23.860Z,5.39
2023-03-24T04:54:22.299Z,5.26
2023-03-24T04:56:57.880Z,5.26
2023-03-24T04:59:35.792Z,5.34
2023-03-24T05:02:11.425Z,5.29
2023-03-24T05:05:03.987Z,5.14
2023-03-24T05:07:35.966Z,5.20
2023-03-24T05:10:22.012Z,5.30
2023-03-24T05:12:54.656Z,5.27
2023-03-24T05:15:43.610Z,5.20
2023-03-24T05:18:22.550Z,5.16
2023-03-24T05:20:49.678Z,5.15
2023-03-24T05:23:23.112Z,5.16
2023-03-24T05:26:00.971Z,5.16
2023-03-24T05:28:45.002Z,5.04
2023-03-24T05:31:14.193Z,5.16
2023-03-24T05:33:45.652Z,5.17
2023-03-24T05:36:17.039Z,5.18
2023-03-24T05:38:51.048Z,5.20
2023-03-24T05:41:18.699Z,5.22
2023-03-24T05:43:45.966Z,5.20
2023-03-24T05:46:16.316Z,5.24
2023-03-24T05:48:48.380Z,5.19
2023-03-24T05:51:19.424Z,5.25
2023-03-24T05:53:53.024Z,5.22
2023-03-24T05:56:29.349Z,5.26
2023-03-24T05:59:17.246Z,5.30
2023-03-24T06:01:53.737Z,5.34
2023-03-24T06:04:31.276Z,5.34
2023-03-24T06:07:06.168Z,5.30
2023-03-24T06:09:38.910Z,5.34
2023-03-24T06:12:08.485Z,5.33
2023-03-24T06:14:37.081Z,5.37
2023-03-24T06:17:15.888Z,5.31
2023-03-24T06:19:51.047Z,5.30
2023-03-24T06:25:33.753Z,5.27
2023-03-24T06:28:35.117Z,5.24
2023-03-24T06:31:15.255Z,5.28
2023-03-24T06:33:45.352Z,5.27
2023-03-24T06:38:59.617Z,5.33
2023-03-24T06:41:28.508Z,5.34
2023-03-24T06:44:04.867Z,5.37
2023-03-24T06:49:16.649Z,5.34
2023-03-24T06:57:28.907Z,5.41
2023-03-24T07:12:04.044Z,5.38
2023-03-24T07:14:32.308Z,5.38
2023-03-24T07:17:02.050Z,5.36
2023-03-24T07:19:47.910Z,5.42
2023-03-24T07:22:49.025Z,5.40
2023-03-24T07:25:47.191Z,5.43
2023-03-24T07:28:24.823Z,5.42
2023-03-24T07:30:54.845Z,5.46
2023-03-24T07:33:25.102Z,5.41
2023-03-24T07:35:57.719Z,5.39
2023-03-24T07:38:29.372Z,5.43
2023-03-24T07:41:03.444Z,5.45
2023-03-24T07:43:33.865Z,5.46
2023-03-24T07:46:14.631Z,5.38
2023-03-24T07:48:43.933Z,5.40
2023-03-24T07:51:11.980Z,5.38
2023-03-24T07:53:53.630Z,5.40
2023-03-24T07:56:33.569Z,5.40
2023-03-24T07:59:02.406Z,5.45
2023-03-24T08:01:39.990Z,5.42
2023-03-24T08:07:03.186Z,5.42
2023-03-24T08:09:30.306Z,5.36
2023-03-24T08:12:00.570Z,5.40
2023-03-24T08:14:38.569Z,5.43
2023-03-24T08:17:05.662Z,5.45
2023-03-24T08:19:33.195Z,5.45
2023-03-24T08:22:01.276Z,5.47
2023-03-24T08:24:31.894Z,5.49
2023-03-24T08:27:03.273Z,5.45
2023-03-24T08:29:32.606Z,5.46
2023-03-24T08:31:59.753Z,5.52
2023-03-24T08:34:28.905Z,5.51
2023-03-24T08:36:58.416Z,5.58
2023-03-24T08:39:26.566Z,5.59
2023-03-24T08:41:55.159Z,5.47
2023-03-24T08:44:22.570Z,5.57
2023-03-24T08:52:23.121Z,5.63
2023-03-24T08:54:51.006Z,5.57
2023-03-24T08:57:18.327Z,5.58
2023-03-24T09:02:33.728Z,5.68
2023-03-24T09:05:00.795Z,5.57
2023-03-24T09:07:27.785Z,5.68
2023-03-24T09:10:03.976Z,5.73
2023-03-24T09:12:38.369Z,5.80
2023-03-24T09:15:11.767Z,5.85
2023-03-24T09:17:41.412Z,5.81
2023-03-24T09:20:13.234Z,5.79
2023-03-24T09:22:46.999Z,5.81
2023-03-24T09:25:18.367Z,5.84
2023-03-24T09:27:53.220Z,5.83
2023-03-24T09:30:21.111Z,5.88
2023-03-24T09:32:49.326Z,5.77
2023-03-24T09:35:22.477Z,5.84
2023-03-24T09:37:49.818Z,5.80
2023-03-24T09:40:22.492Z,5.82
2023-03-24T09:43:03.999Z,5.88
2023-03-24T09:45:38.626Z,5.84
2023-03-24T09:48:12.070Z,5.82
2023-03-24T09:50:51.781Z,5.78
2023-03-24T09:53:25.654Z,5.78
2023-03-24T09:55:55.253Z,5.70
2023-03-24T09:58:32.263Z,5.69
2023-03-24T10:01:04.423Z,5.79
2023-03-24T10:03:32.675Z,5.77
2023-03-24T10:06:10.057Z,5.74
2023-03-24T10:08:44.099Z,5.80
2023-03-24T10:11:23.297Z,5.71
2023-03-24T10:13:55.953Z,5.77
2023-03-24T10:16:36.034Z,5.76
2023-03-24T10:19:16.370Z,5.77
2023-03-24T10:22:01.302Z,5.76
2023-03-24T10:24:38.202Z,5.75
2023-03-24T10:27:17.483Z,5.76
2023-03-24T10:29:46.974Z,5.73
2023-03-24T10:35:26.167Z,5.88
2023-03-24T10:37:57.303Z,6.03
2023-03-24T10:40:33.250Z,6.05
2023-03-24T10:43:07.371Z,6.19
2023-03-24T10:45:38.903Z,6.20
2023-03-24T10:48:06.241Z,6.31
2023-03-24T10:50:36.117Z,6.44
2023-03-24T10:53:24.061Z,6.43
2023-03-24T10:55:52.006Z,6.41
2023-03-24T10:58:40.942Z,6.37
2023-03-24T11:01:28.195Z,6.34
2023-03-24T11:04:02.674Z,6.33
2023-03-24T11:06:30.113Z,6.31
2023-03-24T11:09:17.095Z,6.42
2023-03-24T11:11:44.512Z,6.42
2023-03-24T11:14:25.651Z,6.51
2023-03-24T11:16:54.578Z,6.58
2023-03-24T11:19:23.499Z,6.69
2023-03-24T11:22:00.156Z,6.78
2023-03-24T11:27:15.123Z,6.59
2023-03-24T11:29:43.070Z,6.68
2023-03-24T11:32:18.042Z,6.78
2023-03-24T11:34:47.880Z,6.82
2023-03-24T11:37:22.374Z,7.02
2023-03-24T11:40:14.789Z,7.32
2023-03-24T11:43:11.351Z,7.31
2023-03-24T11:45:44.051Z,7.24
2023-03-24T11:48:49.937Z,7.20
2023-03-24T11:51:18.190Z,7.06
2023-03-24T11:53:48.586Z,6.93
2023-03-24T11:56:24.911Z,6.84
2023-03-24T11:59:04.360Z,6.71
2023-03-24T12:01:39.252Z,6.61
2023-03-24T12:04:08.047Z,6.79
2023-03-24T12:06:35.021Z,7.10
2023-03-24T12:09:22.222Z,7.18
2023-03-24T12:12:21.909Z,7.15
2023-03-24T12:14:54.955Z,7.07
2023-03-24T12:17:24.290Z,6.97
2023-03-24T12:19:57.983Z,6.86
2023-03-24T12:22:52.787Z,6.84
2023-03-24T12:25:46.362Z,7.23
2023-03-24T12:28:29.118Z,9.04
2023-03-24T12:31:05.387Z,10.69
2023-03-24T12:33:46.048Z,11.78
2023-03-24T12:36:46.991Z,13.07
2023-03-24T12:39:18.862Z,12.93
2023-03-24T12:41:51.989Z,12.36
2023-03-24T12:44:31.048Z,11.77
2023-03-24T12:47:19.473Z,11.06
2023-03-24T12:50:10.846Z,10.08
2023-03-24T12:52:58.056Z,9.51
2023-03-24T12:55:49.169Z,8.91
2023-03-24T12:58:35.333Z,8.67
2023-03-24T13:01:34.349Z,8.56
2023-03-24T13:07:11.793Z,8.39
2023-03-24T13:10:00.468Z,8.35
2023-03-24T13:12:44.696Z,8.39
2023-03-24T13:15:17.899Z,8.60
2023-03-24T13:18:14.393Z,9.40
2023-03-24T13:20:45.688Z,9.96
2023-03-24T13:23:24.401Z,10.05
2023-03-24T13:26:41.538Z,10.38
2023-03-24T13:29:14.499Z,12.45
2023-03-24T13:31:56.440Z,11.39
2023-03-24T13:34:30.600Z,10.24
2023-03-24T13:37:13.914Z,9.70
2023-03-24T13:39:44.048Z,9.97
2023-03-24T13:42:38.284Z,9.90
2023-03-24T13:45:19.086Z,9.22
2023-03-24T13:48:16.391Z,8.96
2023-03-24T13:50:55.416Z,10.63
2023-03-24T13:53:39.064Z,11.58
2023-03-24T13:56:07.536Z,11.59
2023-03-24T13:59:05.882Z,11.63
2023-03-24T14:01:38.849Z,11.54
2023-03-24T14:04:28.908Z,11.08
2023-03-24T14:06:56.578Z,10.14
2023-03-24T14:09:24.718Z,9.74
2023-03-24T14:12:03.938Z,9.43
2023-03-24T14:14:34.403Z,9.07
2023-03-24T14:17:16.862Z,8.92
2023-03-24T14:19:58.803Z,8.98
2023-03-24T14:22:33.839Z,8.96
2023-03-24T14:25:03.803Z,9.00
2023-03-24T14:27:36.875Z,8.79
2023-03-24T14:30:16.489Z,8.64
2023-03-24T14:33:01.031Z,8.50
2023-03-24T14:35:42.467Z,8.40
2023-03-24T14:38:15.762Z,8.36
2023-03-24T14:40:49.685Z,8.27
2023-03-24T14:43:41.606Z,8.17
2023-03-24T14:46:21.285Z,8.13
2023-03-24T14:49:14.684Z,8.03
2023-03-24T14:51:44.221Z,7.98
2023-03-24T14:54:21.245Z,7.94
2023-03-24T14:56:53.100Z,7.84
2023-03-24T14:59:23.408Z,7.86
2023-03-24T15:01:51.765Z,7.80
2023-03-24T15:04:19.076Z,7.77
2023-03-24T15:06:48.361Z,7.76
2023-03-24T15:09:17.393Z,7.67
2023-03-24T15:11:49.557Z,7.74
2023-03-24T15:14:27.494Z,7.67
2023-03-24T15:16:59.389Z,7.64
2023-03-24T15:19:35.921Z,7.56
2023-03-24T15:22:06.247Z,7.54
2023-03-24T15:24:42.825Z,7.47
2023-03-24T15:27:24.892Z,7.44
2023-03-24T15:29:59.957Z,7.37
2023-03-24T15:32:32.441Z,7.28
2023-03-24T15:35:06.274Z,7.23
2023-03-24T15:40:36.389Z,7.19
2023-03-24T15:43:06.977Z,7.06
2023-03-24T15:46:04.841Z,7.11
2023-03-24T15:48:38.900Z,6.98
2023-03-24T15:51:09.726Z,7.06
2023-03-24T15:53:46.698Z,7.00
2023-03-24T15:56:25.915Z,6.93
2023-03-24T15:59:16.465Z,6.99
2023-03-24T16:01:45.408Z,6.93
2023-03-24T16:04:16.742Z,6.85
2023-03-24T16:06:53.559Z,6.85
2023-03-24T16:09:27.901Z,6.84
2023-03-24T16:12:00.141Z,6.77
2023-03-24T16:14:35.575Z,6.79
2023-03-24T16:17:04.136Z,6.77
2023-03-24T16:19:33.205Z,6.67
2023-03-24T16:22:15.724Z,6.67
2023-03-24T16:24:44.640Z,6.63
2023-03-24T16:27:29.450Z,6.62
2023-03-24T16:32:39.364Z,6.46
2023-03-24T16:35:07.782Z,6.50
2023-03-24T16:40:36.126Z,6.34
2023-03-24T16:43:04.677Z,6.45
2023-03-24T17:01:04.560Z,6.28
2023-03-24T17:03:38.501Z,5.97
2023-03-24T17:06:14.574Z,6.03
2023-03-24T17:08:49.342Z,5.95
2023-03-24T17:11:31.849Z,5.85
2023-03-24T17:14:17.281Z,5.64
2023-03-24T17:16:49.917Z,5.64
2023-03-24T17:19:25.875Z,5.55
2023-03-24T17:22:04.263Z,5.42
2023-03-24T17:24:45.295Z,5.40
2023-03-24T17:27:21.414Z,5.21
2023-03-24T17:29:54.555Z,5.15
2023-03-24T17:32:33.304Z,5.10
2023-03-24T17:35:08.702Z,5.32
2023-03-24T17:37:44.754Z,5.22
2023-03-24T17:40:19.972Z,5.11
2023-03-24T17:45:53.928Z,5.13
2023-03-24T17:48:26.343Z,5.24
2023-03-24T17:51:09.031Z,5.04
2023-03-24T17:53:38.792Z,5.13
2023-03-24T17:56:11.821Z,5.10
2023-03-24T18:01:47.218Z,4.86
2023-03-24T18:04:26.341Z,4.71
2023-03-24T18:06:56.359Z,4.66
2023-03-24T18:09:27.459Z,4.44
2023-03-24T18:12:02.308Z,4.67
2023-03-24T18:14:33.026Z,4.64
2023-03-24T18:17:01.521Z,4.65
2023-03-24T18:19:37.151Z,4.81
2023-03-24T18:22:04.531Z,4.73
2023-03-24T18:24:39.430Z,4.66
2023-03-24T18:27:10.193Z,4.67
2023-03-24T18:29:38.592Z,4.59
2023-03-24T18:32:13.638Z,4.57
2023-03-24T18:34:45.227Z,4.57
2023-03-24T18:40:10.220Z,4.45
2023-03-24T18:42:47.400Z,4.62
2023-03-24T18:45:21.369Z,4.49
2023-03-24T18:47:51.568Z,4.47
2023-03-24T18:50:22.771Z,4.60
2023-03-24T18:53:02.240Z,4.56
2023-03-24T18:56:02.571Z,4.55
2023-03-24T19:02:18.120Z,4.68
2023-03-24T19:05:34.248Z,4.39
2023-03-24T19:08:22.044Z,4.39
2023-03-24T19:11:08.536Z,4.48
2023-03-24T19:14:18.267Z,4.29
2023-03-24T19:20:32.594Z,4.09
2023-03-24T19:29:30.251Z,4.02
2023-03-24T19:35:11.115Z,3.82
2023-03-24T19:37:44.318Z,3.72
2023-03-24T19:40:32.620Z,3.78
2023-03-24T19:43:03.064Z,3.65
2023-03-24T19:45:44.773Z,3.63
2023-03-24T19:48:22.691Z,3.71
2023-03-24T19:51:02.297Z,3.54
2023-03-24T19:53:30.572Z,3.82
2023-03-24T19:56:03.374Z,3.66
2023-03-24T19:58:33.802Z,3.54
2023-03-24T20:01:05.303Z,3.37
2023-03-24T20:03:58.792Z,3.42
2023-03-24T20:06:35.716Z,3.47
2023-03-24T20:09:19.474Z,3.42
2023-03-24T20:11:50.082Z,3.36
2023-03-24T20:14:20.385Z,3.45
2023-03-24T20:16:53.296Z,3.45
2023-03-24T20:19:27.852Z,3.27
2023-03-24T20:22:37.943Z,3.25
2023-03-24T20:25:05.859Z,3.24
2023-03-24T20:27:33.081Z,3.20
2023-03-24T20:30:00.668Z,3.16
2023-03-24T20:33:00.171Z,3.19
2023-03-24T20:35:28.422Z,2.97
2023-03-24T20:38:05.284Z,2.98
2023-03-24T20:40:51.380Z,3.08
2023-03-24T20:43:31.454Z,3.13
2023-03-24T20:46:01.556Z,3.09
2023-03-24T20:48:29.508Z,2.91
2023-03-24T20:51:17.347Z,2.94
2023-03-24T20:53:53.139Z,2.77
2023-03-24T20:56:23.280Z,2.97
2023-03-24T20:58:55.747Z,2.88
2023-03-24T21:01:39.251Z,2.93
2023-03-24T21:04:10.569Z,2.75
2023-03-24T21:06:40.892Z,2.73
2023-03-24T21:09:15.260Z,2.80
2023-03-24T21:11:44.999Z,2.82
2023-03-24T21:14:20.703Z,2.79
2023-03-24T21:16:54.733Z,2.76
2023-03-24T21:19:23.080Z,2.79
2023-03-24T21:21:56.317Z,2.99
2023-03-24T21:24:24.394Z,2.81
2023-03-24T21:26:57.360Z,2.99
2023-03-24T21:29:35.950Z,3.00
2023-03-24T21:32:03.481Z,2.98
2023-03-24T21:34:35.555Z,3.06
2023-03-24T21:37:04.063Z,2.87
2023-03-24T21:39:31.960Z,2.94
2023-03-24T21:41:58.914Z,2.82
2023-03-24T21:44:29.015Z,2.92
2023-03-24T21:46:56.688Z,2.85
2023-03-24T21:49:23.737Z,2.85
2023-03-24T21:52:06.508Z,2.94
2023-03-24T21:54:33.584Z,2.84
2023-03-24T21:57:00.977Z,2.88
2023-03-24T21:59:28.766Z,2.90
2023-03-24T22:01:57.651Z,3.04
2023-03-24T22:04:25.389Z,2.93
2023-03-24T22:06:54.577Z,2.91
2023-03-24T22:09:21.751Z,3.07
2023-03-24T22:11:48.786Z,3.02
2023-03-24T22:14:16.409Z,2.91
2023-03-24T22:16:43.721Z,2.94
2023-03-24T22:19:10.918Z,2.90
2023-03-24T22:21:39.541Z,2.90
2023-03-24T22:24:07.110Z,2.99
2023-03-24T22:26:34.141Z,2.87
2023-03-24T22:29:03.703Z,2.84
2023-03-24T22:31:31.034Z,2.88
2023-03-24T22:33:58.114Z,2.88
2023-03-24T22:36:28.101Z,2.79
2023-03-24T22:38:55.311Z,2.89
2023-03-24T22:41:22.433Z,2.76
2023-03-24T22:43:50.581Z,2.83
2023-03-24T22:46:20.155Z,2.75
2023-03-24T22:48:49.030Z,2.70
2023-03-24T22:51:19.484Z,2.62
2023-03-24T22:53:46.780Z,2.65
2023-03-24T22:56:15.677Z,2.49
2023-03-24T22:58:42.746Z,2.59
2023-03-24T23:01:10.166Z,2.70
2023-03-24T23:03:38.493Z,2.68
2023-03-24T23:06:07.195Z,2.64
2023-03-24T23:08:34.412Z,2.54
2023-03-24T23:11:01.524Z,2.57
2023-03-24T23:13:30.904Z,2.48
2023-03-24T23:15:58.015Z,2.31
2023-03-24T23:18:25.077Z,2.31
2023-03-24T23:21:08.035Z,2.26
2023-03-24T23:23:36.316Z,2.13
2023-03-24T23:26:05.686Z,2.01
2023-03-24T23:28:33.642Z,2.02
2023-03-24T23:31:00.891Z,2.07
2023-03-24T23:33:28.042Z,2.05
2023-03-24T23:35:59.002Z,2.13
2023-03-24T23:38:26.681Z,1.94
2023-03-24T23:40:53.735Z,1.98
2023-03-24T23:43:21.436Z,1.90
2023-03-24T23:45:48.598Z,1.79
2023-03-24T23:48:15.765Z,1.73
2023-03-24T23:50:46.409Z,1.86
2023-03-24T23:53:13.506Z,1.85
2023-03-24T23:55:41.772Z,1.70
2023-03-24T23:58:08.790Z,1.73
